Oxnard Airport
KOXR : now visible

Airfield :











YOU CAN JOIN US ON...

 
LOGIN :

Register | Disclaimer

   EN    FR    IT 

 









Legend :    VFR   Marginal VFR   IFR   Intensive IFR   Very Intensive IFR
Visi :
Ceiling :
>= 8 km
>= 3000ft
5 to 8 km
1000 to 3000 ft
1500m to 5 km
500 to 1000 ft
800 to 1500m
200 to 500 ft
< 800m
< 200 ft
Symbols :   Thunderstorms  Fog  Heavy snow  Heavy precipitations  Wind > 20 kt






- Airport Elevation : 45 ft


KOXR - Oxnard

CURRENT METAR :
  • 150851Z AUTO 00000KT 6SM BR CLR 15/15 A2987 RMK AO2 SLP113 T01500150 50000

EXPIRED METARs :
  • 150751Z AUTO 27003KT 7SM CLR 15/15 A2988 RMK AO2 SLP117 T01500150 402220150
  • 150651Z AUTO 26003KT 7SM CLR 16/15 A2988 RMK AO2 SLP117 T01560150

TAF KOXR
Valid from the 15 at 06:00 until the 16 at 06:00 UTC


150530Z 1506/1606 28005KT P6SM SKC
FM151000 VRB03KT P6SM SKC
FM151300 VRB03KT 5SM BR SCT005
FM151700 27010KT P6SM SKC
FM160300 27005KT P6SM SKC
KZLA FIR / North America



MET'MAP, your aeronautical weather chart ! - Copyright ORBIFLY December 2007 - Disclaimer

ORBIFLY MET'MAP TEAM :

Programming & Development : Alexandra Zaïnal
Original concept : Baudouin d'Aumeries
Technical & hardware support : Manuel Goepfert
Assistance : Marc-Olivier Méhu




SOURCES & CREDITS :

   NOAA       Earth
Advisory